VGEG/CGP METAR and TAF weather

Enter ICAO airport designator
Station Type Date Time Source
VGEG METAR 2019/10/23 08:00 UTC NOAA

VGEG 230800Z 30005KT 4000 HZ SCT018 34/23 Q1007 NOSIG


Station Type Date Time Source
VGEG Decoded METAR 2019/10/23 08:00 UTC NOAA

Chittagong Patenga , Bangladesh (VGEG) 22-16N 091-49E 6M
Oct 23, 2019 - 04:00 AM EDT / 2019.10.23 0800 UTC
Wind: from the WNW (300 degrees) at 6 MPH (5 KT):0
Visibility: 2 mile(s):0
Sky conditions: partly cloudy
Weather: haze
Temperature: 93 F (34 C)
Heat index: 101.8 F (38.8 C):1
Dew Point: 73 F (23 C)
Relative Humidity: 52%
Pressure (altimeter): 29.74 in. Hg (1007 hPa)
ob: VGEG 230800Z 30005KT 4000 HZ SCT018 34/23 Q1007 NOSIG
cycle: 8

Station Type Date Time Source
VGEG TAF 2019/10/23 06:33 UTC NOAA

TAF TAF VGEG 230500Z 2306/2412 28003KT 5000 HZ FEW020
BECMG 2318/2320 02003KT 4000 HZ FEW018
BECMG 2322/2324 00000KT 3500 HZ FEW018
BECMG 2407/2409 32004KT 5000 HZ FEW020

Example: see airport list